sensor_id;sensor_type;location;lat;lon;timestamp;P1;durP1;ratioP1;P2;durP2;ratioP2
33413;SDS011;60055;41.884;12.534;2023-08-30T00:02:17;28.48;;;5.63;;
33413;SDS011;60055;41.884;12.534;2023-08-30T00:04:42;16.80;;;5.07;;
33413;SDS011;60055;41.884;12.534;2023-08-30T00:07:08;25.23;;;5.28;;
33413;SDS011;60055;41.884;12.534;2023-08-30T00:09:33;17.10;;;4.60;;
33413;SDS011;60055;41.884;12.534;2023-08-30T00:12:01;24.08;;;4.68;;
33413;SDS011;60055;41.884;12.534;2023-08-30T00:14:27;19.73;;;4.70;;
33413;SDS011;60055;41.884;12.534;2023-08-30T00:16:52;20.63;;;4.60;;
33413;SDS011;60055;41.884;12.534;2023-08-30T00:19:17;18.38;;;4.30;;
33413;SDS011;60055;41.884;12.534;2023-08-30T00:21:43;22.70;;;4.88;;
33413;SDS011;60055;41.884;12.534;2023-08-30T00:24:09;19.40;;;4.47;;
33413;SDS011;60055;41.884;12.534;2023-08-30T00:26:35;23.73;;;4.72;;
33413;SDS011;60055;41.884;12.534;2023-08-30T00:29:00;18.40;;;4.15;;
33413;SDS011;60055;41.884;12.534;2023-08-30T00:31:26;23.75;;;4.57;;
33413;SDS011;60055;41.884;12.534;2023-08-30T00:33:51;25.73;;;5.07;;
33413;SDS011;60055;41.884;12.534;2023-08-30T00:36:17;19.65;;;3.90;;
33413;SDS011;60055;41.884;12.534;2023-08-30T00:38:43;20.25;;;4.22;;
33413;SDS011;60055;41.884;12.534;2023-08-30T00:41:09;13.63;;;3.53;;
33413;SDS011;60055;41.884;12.534;2023-08-30T00:43:35;19.13;;;4.05;;
33413;SDS011;60055;41.884;12.534;2023-08-30T00:46:00;18.60;;;4.50;;
33413;SDS011;60055;41.884;12.534;2023-08-30T00:48:25;17.52;;;4.85;;
33413;SDS011;60055;41.884;12.534;2023-08-30T00:50:52;18.83;;;4.25;;
33413;SDS011;60055;41.884;12.534;2023-08-30T00:53:17;20.23;;;4.55;;
33413;SDS011;60055;41.884;12.534;2023-08-30T00:55:43;21.95;;;4.43;;
33413;SDS011;60055;41.884;12.534;2023-08-30T00:58:09;28.17;;;4.30;;
33413;SDS011;60055;41.884;12.534;2023-08-30T01:00:36;19.05;;;4.90;;
33413;SDS011;60055;41.884;12.534;2023-08-30T01:03:02;18.08;;;4.50;;
33413;SDS011;60055;41.884;12.534;2023-08-30T01:05:30;22.65;;;4.28;;
33413;SDS011;60055;41.884;12.534;2023-08-30T01:07:56;16.92;;;4.05;;
33413;SDS011;60055;41.884;12.534;2023-08-30T01:10:22;17.85;;;4.65;;
33413;SDS011;60055;41.884;12.534;2023-08-30T01:12:59;23.55;;;6.18;;
33413;SDS011;60055;41.884;12.534;2023-08-30T01:15:33;19.35;;;5.43;;
33413;SDS011;60055;41.884;12.534;2023-08-30T01:18:00;18.17;;;5.40;;
33413;SDS011;60055;41.884;12.534;2023-08-30T01:20:29;22.40;;;5.18;;
33413;SDS011;60055;41.884;12.534;2023-08-30T01:23:17;22.70;;;6.32;;
33413;SDS011;60055;41.884;12.534;2023-08-30T01:26:09;23.05;;;6.03;;
33413;SDS011;60055;41.884;12.534;2023-08-30T01:28:40;18.55;;;5.07;;
33413;SDS011;60055;41.884;12.534;2023-08-30T01:31:06;22.02;;;5.55;;
33413;SDS011;60055;41.884;12.534;2023-08-30T01:33:38;21.33;;;4.85;;
33413;SDS011;60055;41.884;12.534;2023-08-30T01:36:03;19.60;;;5.32;;
33413;SDS011;60055;41.884;12.534;2023-08-30T01:38:30;23.50;;;5.18;;
33413;SDS011;60055;41.884;12.534;2023-08-30T01:40:58;21.25;;;4.90;;
33413;SDS011;60055;41.884;12.534;2023-08-30T01:43:27;18.27;;;4.53;;
33413;SDS011;60055;41.884;12.534;2023-08-30T01:45:56;14.85;;;4.40;;
33413;SDS011;60055;41.884;12.534;2023-08-30T01:48:22;21.08;;;4.72;;
33413;SDS011;60055;41.884;12.534;2023-08-30T01:50:49;21.42;;;4.85;;
33413;SDS011;60055;41.884;12.534;2023-08-30T01:53:15;21.77;;;4.68;;
33413;SDS011;60055;41.884;12.534;2023-08-30T01:55:42;20.10;;;3.90;;
33413;SDS011;60055;41.884;12.534;2023-08-30T01:58:08;18.17;;;4.45;;
33413;SDS011;60055;41.884;12.534;2023-08-30T02:00:34;18.83;;;4.13;;
33413;SDS011;60055;41.884;12.534;2023-08-30T02:03:06;24.83;;;4.70;;
33413;SDS011;60055;41.884;12.534;2023-08-30T02:05:33;20.17;;;4.20;;
33413;SDS011;60055;41.884;12.534;2023-08-30T02:08:05;17.25;;;3.70;;
33413;SDS011;60055;41.884;12.534;2023-08-30T02:10:40;19.42;;;3.88;;
33413;SDS011;60055;41.884;12.534;2023-08-30T02:13:08;19.65;;;3.97;;
33413;SDS011;60055;41.884;12.534;2023-08-30T02:15:37;15.40;;;3.33;;
33413;SDS011;60055;41.884;12.534;2023-08-30T02:18:09;16.25;;;3.40;;
33413;SDS011;60055;41.884;12.534;2023-08-30T02:20:35;17.88;;;3.08;;
33413;SDS011;60055;41.884;12.534;2023-08-30T02:23:00;12.68;;;3.20;;
33413;SDS011;60055;41.884;12.534;2023-08-30T02:25:26;15.02;;;3.50;;
33413;SDS011;60055;41.884;12.534;2023-08-30T02:27:51;14.75;;;3.45;;
33413;SDS011;60055;41.884;12.534;2023-08-30T02:30:17;14.70;;;3.95;;
33413;SDS011;60055;41.884;12.534;2023-08-30T02:32:42;16.52;;;3.80;;
33413;SDS011;60055;41.884;12.534;2023-08-30T02:35:08;21.95;;;3.75;;
33413;SDS011;60055;41.884;12.534;2023-08-30T02:37:33;13.70;;;3.20;;
33413;SDS011;60055;41.884;12.534;2023-08-30T02:39:59;19.98;;;3.83;;
33413;SDS011;60055;41.884;12.534;2023-08-30T02:42:24;23.42;;;3.80;;
33413;SDS011;60055;41.884;12.534;2023-08-30T02:44:51;16.17;;;3.40;;
33413;SDS011;60055;41.884;12.534;2023-08-30T02:47:17;16.17;;;3.47;;
33413;SDS011;60055;41.884;12.534;2023-08-30T02:49:42;18.15;;;3.67;;
33413;SDS011;60055;41.884;12.534;2023-08-30T02:52:07;13.10;;;3.45;;
33413;SDS011;60055;41.884;12.534;2023-08-30T02:54:33;13.10;;;3.00;;
33413;SDS011;60055;41.884;12.534;2023-08-30T02:56:58;16.42;;;3.17;;
33413;SDS011;60055;41.884;12.534;2023-08-30T02:59:24;19.70;;;3.45;;
33413;SDS011;60055;41.884;12.534;2023-08-30T03:01:49;20.80;;;3.55;;
33413;SDS011;60055;41.884;12.534;2023-08-30T03:04:14;18.77;;;3.17;;
33413;SDS011;60055;41.884;12.534;2023-08-30T03:06:40;14.77;;;3.28;;
33413;SDS011;60055;41.884;12.534;2023-08-30T03:09:05;17.35;;;3.67;;
33413;SDS011;60055;41.884;12.534;2023-08-30T03:11:31;15.77;;;3.65;;
33413;SDS011;60055;41.884;12.534;2023-08-30T03:13:57;14.32;;;3.15;;
33413;SDS011;60055;41.884;12.534;2023-08-30T03:16:22;13.68;;;3.42;;
33413;SDS011;60055;41.884;12.534;2023-08-30T03:18:48;16.05;;;3.28;;
33413;SDS011;60055;41.884;12.534;2023-08-30T03:21:14;19.33;;;3.35;;
33413;SDS011;60055;41.884;12.534;2023-08-30T03:23:40;17.55;;;3.30;;
33413;SDS011;60055;41.884;12.534;2023-08-30T03:26:10;16.77;;;3.63;;
33413;SDS011;60055;41.884;12.534;2023-08-30T03:28:35;21.05;;;3.78;;
33413;SDS011;60055;41.884;12.534;2023-08-30T03:31:01;17.10;;;3.45;;
33413;SDS011;60055;41.884;12.534;2023-08-30T03:33:27;15.82;;;3.83;;
33413;SDS011;60055;41.884;12.534;2023-08-30T03:35:52;17.35;;;3.67;;
33413;SDS011;60055;41.884;12.534;2023-08-30T03:38:18;17.75;;;3.67;;
33413;SDS011;60055;41.884;12.534;2023-08-30T03:40:44;17.20;;;3.67;;
33413;SDS011;60055;41.884;12.534;2023-08-30T03:43:09;15.10;;;3.55;;
33413;SDS011;60055;41.884;12.534;2023-08-30T03:45:37;16.98;;;3.25;;
33413;SDS011;60055;41.884;12.534;2023-08-30T03:48:03;16.98;;;3.58;;
33413;SDS011;60055;41.884;12.534;2023-08-30T03:50:29;19.50;;;3.78;;
33413;SDS011;60055;41.884;12.534;2023-08-30T03:52:54;12.98;;;2.80;;
33413;SDS011;60055;41.884;12.534;2023-08-30T03:55:20;25.52;;;4.03;;
33413;SDS011;60055;41.884;12.534;2023-08-30T03:57:46;16.50;;;3.70;;
33413;SDS011;60055;41.884;12.534;2023-08-30T04:00:11;13.63;;;3.50;;
33413;SDS011;60055;41.884;12.534;2023-08-30T04:02:37;18.30;;;3.70;;
33413;SDS011;60055;41.884;12.534;2023-08-30T04:05:02;14.32;;;3.22;;
33413;SDS011;60055;41.884;12.534;2023-08-30T04:07:33;14.48;;;3.45;;
33413;SDS011;60055;41.884;12.534;2023-08-30T04:09:58;14.18;;;3.10;;
33413;SDS011;60055;41.884;12.534;2023-08-30T04:12:24;18.15;;;3.42;;
33413;SDS011;60055;41.884;12.534;2023-08-30T04:14:49;14.10;;;3.13;;
33413;SDS011;60055;41.884;12.534;2023-08-30T04:17:15;18.40;;;3.35;;
33413;SDS011;60055;41.884;12.534;2023-08-30T04:19:40;16.15;;;3.60;;
33413;SDS011;60055;41.884;12.534;2023-08-30T04:22:05;14.43;;;3.20;;
33413;SDS011;60055;41.884;12.534;2023-08-30T04:24:31;18.33;;;3.75;;
33413;SDS011;60055;41.884;12.534;2023-08-30T04:26:56;20.83;;;3.72;;
33413;SDS011;60055;41.884;12.534;2023-08-30T04:29:22;25.95;;;4.05;;
33413;SDS011;60055;41.884;12.534;2023-08-30T04:31:47;23.48;;;4.20;;
33413;SDS011;60055;41.884;12.534;2023-08-30T04:34:12;24.02;;;4.50;;
33413;SDS011;60055;41.884;12.534;2023-08-30T04:36:38;21.50;;;4.50;;
33413;SDS011;60055;41.884;12.534;2023-08-30T04:39:03;19.98;;;5.30;;
33413;SDS011;60055;41.884;12.534;2023-08-30T04:41:29;20.63;;;4.38;;
33413;SDS011;60055;41.884;12.534;2023-08-30T04:43:54;14.43;;;3.75;;
33413;SDS011;60055;41.884;12.534;2023-08-30T04:46:19;26.23;;;5.57;;
33413;SDS011;60055;41.884;12.534;2023-08-30T04:48:45;20.85;;;3.85;;
33413;SDS011;60055;41.884;12.534;2023-08-30T04:51:11;25.40;;;4.68;;
33413;SDS011;60055;41.884;12.534;2023-08-30T04:53:36;20.27;;;4.20;;
33413;SDS011;60055;41.884;12.534;2023-08-30T04:56:09;23.70;;;3.90;;
33413;SDS011;60055;41.884;12.534;2023-08-30T04:58:35;21.38;;;3.90;;
33413;SDS011;60055;41.884;12.534;2023-08-30T05:01:01;21.73;;;3.67;;
33413;SDS011;60055;41.884;12.534;2023-08-30T05:03:27;19.02;;;3.38;;
33413;SDS011;60055;41.884;12.534;2023-08-30T05:05:53;22.58;;;3.70;;
33413;SDS011;60055;41.884;12.534;2023-08-30T05:08:18;15.43;;;3.00;;
33413;SDS011;60055;41.884;12.534;2023-08-30T05:10:43;19.15;;;3.40;;
33413;SDS011;60055;41.884;12.534;2023-08-30T05:13:11;15.10;;;3.50;;
33413;SDS011;60055;41.884;12.534;2023-08-30T05:15:37;16.40;;;3.45;;
33413;SDS011;60055;41.884;12.534;2023-08-30T05:18:02;16.73;;;3.80;;
33413;SDS011;60055;41.884;12.534;2023-08-30T05:20:29;15.50;;;4.00;;
33413;SDS011;60055;41.884;12.534;2023-08-30T05:22:55;16.60;;;3.83;;
33413;SDS011;60055;41.884;12.534;2023-08-30T05:25:20;17.67;;;3.45;;
33413;SDS011;60055;41.884;12.534;2023-08-30T05:27:45;16.58;;;3.95;;
33413;SDS011;60055;41.884;12.534;2023-08-30T05:30:11;16.95;;;3.50;;
33413;SDS011;60055;41.884;12.534;2023-08-30T05:32:37;14.90;;;3.28;;
33413;SDS011;60055;41.884;12.534;2023-08-30T05:35:02;22.02;;;3.50;;
33413;SDS011;60055;41.884;12.534;2023-08-30T05:37:28;13.20;;;3.00;;
33413;SDS011;60055;41.884;12.534;2023-08-30T05:39:53;21.20;;;3.80;;
33413;SDS011;60055;41.884;12.534;2023-08-30T05:42:19;19.67;;;3.83;;
33413;SDS011;60055;41.884;12.534;2023-08-30T05:44:44;11.95;;;2.97;;
33413;SDS011;60055;41.884;12.534;2023-08-30T05:47:10;17.33;;;3.20;;
33413;SDS011;60055;41.884;12.534;2023-08-30T05:49:39;14.93;;;3.22;;
33413;SDS011;60055;41.884;12.534;2023-08-30T05:52:05;14.60;;;3.03;;
33413;SDS011;60055;41.884;12.534;2023-08-30T05:54:30;18.17;;;3.30;;
33413;SDS011;60055;41.884;12.534;2023-08-30T05:56:56;14.98;;;3.05;;
33413;SDS011;60055;41.884;12.534;2023-08-30T05:59:22;12.23;;;2.85;;
33413;SDS011;60055;41.884;12.534;2023-08-30T06:01:47;15.35;;;3.22;;
33413;SDS011;60055;41.884;12.534;2023-08-30T06:04:12;14.25;;;3.40;;
33413;SDS011;60055;41.884;12.534;2023-08-30T06:06:38;17.38;;;3.53;;
33413;SDS011;60055;41.884;12.534;2023-08-30T06:09:04;19.40;;;3.00;;
33413;SDS011;60055;41.884;12.534;2023-08-30T06:11:29;17.90;;;3.20;;
33413;SDS011;60055;41.884;12.534;2023-08-30T06:13:55;14.30;;;3.15;;
33413;SDS011;60055;41.884;12.534;2023-08-30T06:16:20;11.98;;;3.10;;
33413;SDS011;60055;41.884;12.534;2023-08-30T06:18:45;20.23;;;4.07;;
33413;SDS011;60055;41.884;12.534;2023-08-30T06:21:11;22.92;;;3.38;;
33413;SDS011;60055;41.884;12.534;2023-08-30T06:23:37;11.55;;;3.10;;
33413;SDS011;60055;41.884;12.534;2023-08-30T06:26:03;16.80;;;3.58;;
33413;SDS011;60055;41.884;12.534;2023-08-30T06:28:28;18.30;;;3.35;;
33413;SDS011;60055;41.884;12.534;2023-08-30T06:30:54;12.38;;;3.35;;
33413;SDS011;60055;41.884;12.534;2023-08-30T06:33:19;12.70;;;2.83;;
33413;SDS011;60055;41.884;12.534;2023-08-30T06:35:47;13.43;;;3.28;;
33413;SDS011;60055;41.884;12.534;2023-08-30T06:38:13;15.30;;;3.58;;
33413;SDS011;60055;41.884;12.534;2023-08-30T06:40:42;11.93;;;2.85;;
33413;SDS011;60055;41.884;12.534;2023-08-30T06:43:09;17.05;;;3.45;;
33413;SDS011;60055;41.884;12.534;2023-08-30T06:45:35;12.45;;;3.50;;
33413;SDS011;60055;41.884;12.534;2023-08-30T06:48:00;13.77;;;3.15;;
33413;SDS011;60055;41.884;12.534;2023-08-30T06:50:25;14.98;;;3.55;;
33413;SDS011;60055;41.884;12.534;2023-08-30T06:52:51;17.15;;;4.05;;
33413;SDS011;60055;41.884;12.534;2023-08-30T06:55:16;14.35;;;3.40;;
33413;SDS011;60055;41.884;12.534;2023-08-30T06:57:47;14.15;;;3.33;;
33413;SDS011;60055;41.884;12.534;2023-08-30T07:00:13;15.25;;;3.45;;
33413;SDS011;60055;41.884;12.534;2023-08-30T07:02:39;14.40;;;4.30;;
33413;SDS011;60055;41.884;12.534;2023-08-30T07:05:05;22.10;;;4.18;;
33413;SDS011;60055;41.884;12.534;2023-08-30T07:07:31;13.65;;;3.90;;
33413;SDS011;60055;41.884;12.534;2023-08-30T07:09:57;14.20;;;3.67;;
33413;SDS011;60055;41.884;12.534;2023-08-30T07:12:22;14.85;;;3.92;;
33413;SDS011;60055;41.884;12.534;2023-08-30T07:14:48;14.32;;;3.67;;
33413;SDS011;60055;41.884;12.534;2023-08-30T07:17:13;14.25;;;4.03;;
33413;SDS011;60055;41.884;12.534;2023-08-30T07:19:39;18.40;;;4.07;;
33413;SDS011;60055;41.884;12.534;2023-08-30T07:22:04;13.50;;;3.13;;
33413;SDS011;60055;41.884;12.534;2023-08-30T07:24:29;12.80;;;3.00;;
33413;SDS011;60055;41.884;12.534;2023-08-30T07:26:55;16.85;;;3.30;;
33413;SDS011;60055;41.884;12.534;2023-08-30T07:29:20;13.27;;;3.55;;
33413;SDS011;60055;41.884;12.534;2023-08-30T07:31:46;14.85;;;3.50;;
33413;SDS011;60055;41.884;12.534;2023-08-30T07:34:12;15.25;;;3.60;;
33413;SDS011;60055;41.884;12.534;2023-08-30T07:36:37;15.93;;;3.08;;
33413;SDS011;60055;41.884;12.534;2023-08-30T07:39:03;15.50;;;3.15;;
33413;SDS011;60055;41.884;12.534;2023-08-30T07:41:28;13.48;;;3.03;;
33413;SDS011;60055;41.884;12.534;2023-08-30T07:43:54;18.75;;;4.03;;
33413;SDS011;60055;41.884;12.534;2023-08-30T07:46:19;20.27;;;4.00;;
33413;SDS011;60055;41.884;12.534;2023-08-30T07:48:45;12.05;;;3.58;;
33413;SDS011;60055;41.884;12.534;2023-08-30T07:51:10;19.08;;;3.38;;
33413;SDS011;60055;41.884;12.534;2023-08-30T07:53:36;12.32;;;3.15;;
33413;SDS011;60055;41.884;12.534;2023-08-30T07:56:01;11.80;;;3.15;;
33413;SDS011;60055;41.884;12.534;2023-08-30T07:58:27;14.35;;;3.38;;
33413;SDS011;60055;41.884;12.534;2023-08-30T08:00:53;12.75;;;2.75;;
33413;SDS011;60055;41.884;12.534;2023-08-30T08:03:20;12.35;;;2.90;;
33413;SDS011;60055;41.884;12.534;2023-08-30T08:05:46;12.90;;;3.75;;
33413;SDS011;60055;41.884;12.534;2023-08-30T08:08:12;14.70;;;3.88;;
33413;SDS011;60055;41.884;12.534;2023-08-30T08:10:37;13.70;;;2.47;;
33413;SDS011;60055;41.884;12.534;2023-08-30T08:13:03;13.95;;;3.20;;
33413;SDS011;60055;41.884;12.534;2023-08-30T08:15:31;16.85;;;2.83;;
33413;SDS011;60055;41.884;12.534;2023-08-30T08:17:57;14.30;;;3.00;;
33413;SDS011;60055;41.884;12.534;2023-08-30T08:20:23;13.27;;;2.75;;
33413;SDS011;60055;41.884;12.534;2023-08-30T08:22:48;16.17;;;3.08;;
33413;SDS011;60055;41.884;12.534;2023-08-30T08:25:14;12.60;;;2.97;;
33413;SDS011;60055;41.884;12.534;2023-08-30T08:27:39;15.57;;;2.97;;
33413;SDS011;60055;41.884;12.534;2023-08-30T08:30:05;13.52;;;2.97;;
33413;SDS011;60055;41.884;12.534;2023-08-30T08:32:31;14.48;;;2.92;;
33413;SDS011;60055;41.884;12.534;2023-08-30T08:34:57;13.48;;;2.60;;
33413;SDS011;60055;41.884;12.534;2023-08-30T08:37:22;10.50;;;3.00;;
33413;SDS011;60055;41.884;12.534;2023-08-30T08:39:48;11.30;;;4.25;;
33413;SDS011;60055;41.884;12.534;2023-08-30T08:42:16;11.70;;;3.83;;
33413;SDS011;60055;41.884;12.534;2023-08-30T08:44:44;14.77;;;3.80;;
33413;SDS011;60055;41.884;12.534;2023-08-30T08:47:11;18.25;;;3.38;;
33413;SDS011;60055;41.884;12.534;2023-08-30T08:49:37;14.73;;;2.65;;
33413;SDS011;60055;41.884;12.534;2023-08-30T08:52:03;10.95;;;2.80;;
33413;SDS011;60055;41.884;12.534;2023-08-30T08:54:29;11.32;;;3.38;;
33413;SDS011;60055;41.884;12.534;2023-08-30T08:56:55;13.88;;;3.20;;
33413;SDS011;60055;41.884;12.534;2023-08-30T08:59:22;11.82;;;2.90;;
33413;SDS011;60055;41.884;12.534;2023-08-30T09:01:48;11.18;;;3.08;;
33413;SDS011;60055;41.884;12.534;2023-08-30T09:04:14;15.95;;;2.90;;
33413;SDS011;60055;41.884;12.534;2023-08-30T09:06:40;15.07;;;3.40;;
33413;SDS011;60055;41.884;12.534;2023-08-30T09:09:06;14.85;;;4.22;;
33413;SDS011;60055;41.884;12.534;2023-08-30T09:11:33;14.63;;;3.30;;
33413;SDS011;60055;41.884;12.534;2023-08-30T09:13:59;14.48;;;3.28;;
33413;SDS011;60055;41.884;12.534;2023-08-30T09:16:24;10.90;;;3.25;;
33413;SDS011;60055;41.884;12.534;2023-08-30T09:18:59;18.27;;;3.60;;
33413;SDS011;60055;41.884;12.534;2023-08-30T09:21:29;23.23;;;3.83;;
33413;SDS011;60055;41.884;12.534;2023-08-30T09:24:01;11.65;;;3.25;;
33413;SDS011;60055;41.884;12.534;2023-08-30T09:26:30;18.35;;;3.00;;
33413;SDS011;60055;41.884;12.534;2023-08-30T09:29:03;19.25;;;3.80;;
33413;SDS011;60055;41.884;12.534;2023-08-30T09:31:35;15.20;;;3.80;;
33413;SDS011;60055;41.884;12.534;2023-08-30T09:34:02;16.65;;;3.78;;
33413;SDS011;60055;41.884;12.534;2023-08-30T09:36:34;15.75;;;3.53;;
33413;SDS011;60055;41.884;12.534;2023-08-30T09:39:18;15.68;;;3.30;;
33413;SDS011;60055;41.884;12.534;2023-08-30T09:41:47;15.30;;;2.97;;
33413;SDS011;60055;41.884;12.534;2023-08-30T09:44:15;15.93;;;3.30;;
33413;SDS011;60055;41.884;12.534;2023-08-30T09:49:09;18.98;;;4.20;;
33413;SDS011;60055;41.884;12.534;2023-08-30T09:51:35;14.98;;;4.88;;
33413;SDS011;60055;41.884;12.534;2023-08-30T09:54:03;19.13;;;4.13;;
33413;SDS011;60055;41.884;12.534;2023-08-30T09:56:30;19.58;;;3.60;;
33413;SDS011;60055;41.884;12.534;2023-08-30T09:58:58;15.23;;;3.13;;
33413;SDS011;60055;41.884;12.534;2023-08-30T10:01:25;17.08;;;3.25;;
33413;SDS011;60055;41.884;12.534;2023-08-30T10:03:51;13.00;;;3.30;;
33413;SDS011;60055;41.884;12.534;2023-08-30T10:06:19;16.75;;;3.90;;
33413;SDS011;60055;41.884;12.534;2023-08-30T10:08:46;16.48;;;3.00;;
33413;SDS011;60055;41.884;12.534;2023-08-30T10:11:14;17.67;;;3.10;;
33413;SDS011;60055;41.884;12.534;2023-08-30T10:13:42;15.55;;;2.80;;
33413;SDS011;60055;41.884;12.534;2023-08-30T10:16:09;11.13;;;2.88;;
33413;SDS011;60055;41.884;12.534;2023-08-30T10:18:41;11.82;;;2.83;;
33413;SDS011;60055;41.884;12.534;2023-08-30T10:21:08;11.05;;;2.65;;
33413;SDS011;60055;41.884;12.534;2023-08-30T10:26:23;11.13;;;2.95;;
33413;SDS011;60055;41.884;12.534;2023-08-30T10:28:52;12.60;;;2.65;;
33413;SDS011;60055;41.884;12.534;2023-08-30T10:31:19;13.73;;;2.80;;
33413;SDS011;60055;41.884;12.534;2023-08-30T10:33:54;13.55;;;2.80;;
33413;SDS011;60055;41.884;12.534;2023-08-30T10:36:20;12.70;;;2.70;;
33413;SDS011;60055;41.884;12.534;2023-08-30T10:38:53;13.48;;;2.95;;
33413;SDS011;60055;41.884;12.534;2023-08-30T10:41:23;13.38;;;2.90;;
33413;SDS011;60055;41.884;12.534;2023-08-30T10:43:50;12.80;;;2.65;;
33413;SDS011;60055;41.884;12.534;2023-08-30T10:46:17;16.75;;;3.20;;
33413;SDS011;60055;41.884;12.534;2023-08-30T10:48:54;12.00;;;2.90;;
33413;SDS011;60055;41.884;12.534;2023-08-30T10:51:22;10.18;;;3.08;;
33413;SDS011;60055;41.884;12.534;2023-08-30T10:59:26;10.52;;;3.00;;
33413;SDS011;60055;41.884;12.534;2023-08-30T11:01:52;10.55;;;2.53;;
33413;SDS011;60055;41.884;12.534;2023-08-30T11:04:19;11.18;;;2.60;;
33413;SDS011;60055;41.884;12.534;2023-08-30T11:06:47;13.02;;;2.70;;
33413;SDS011;60055;41.884;12.534;2023-08-30T11:09:16;14.15;;;3.10;;
33413;SDS011;60055;41.884;12.534;2023-08-30T11:11:43;12.52;;;2.63;;
33413;SDS011;60055;41.884;12.534;2023-08-30T11:14:09;13.35;;;2.60;;
33413;SDS011;60055;41.884;12.534;2023-08-30T11:16:35;12.05;;;2.90;;
33413;SDS011;60055;41.884;12.534;2023-08-30T11:19:05;7.93;;;2.20;;
33413;SDS011;60055;41.884;12.534;2023-08-30T11:21:32;11.27;;;2.55;;
33413;SDS011;60055;41.884;12.534;2023-08-30T11:23:58;10.55;;;2.78;;
33413;SDS011;60055;41.884;12.534;2023-08-30T11:26:24;17.75;;;3.22;;
33413;SDS011;60055;41.884;12.534;2023-08-30T11:28:50;22.60;;;3.35;;
33413;SDS011;60055;41.884;12.534;2023-08-30T11:31:27;17.50;;;3.30;;
33413;SDS011;60055;41.884;12.534;2023-08-30T11:36:20;12.18;;;2.60;;
33413;SDS011;60055;41.884;12.534;2023-08-30T11:38:47;15.95;;;3.45;;
33413;SDS011;60055;41.884;12.534;2023-08-30T11:41:12;12.35;;;3.03;;
33413;SDS011;60055;41.884;12.534;2023-08-30T11:43:38;13.68;;;3.22;;
33413;SDS011;60055;41.884;12.534;2023-08-30T11:46:03;13.80;;;3.10;;
33413;SDS011;60055;41.884;12.534;2023-08-30T11:48:29;12.40;;;2.60;;
33413;SDS011;60055;41.884;12.534;2023-08-30T11:50:55;10.63;;;2.50;;
33413;SDS011;60055;41.884;12.534;2023-08-30T11:53:20;12.10;;;2.72;;
33413;SDS011;60055;41.884;12.534;2023-08-30T11:55:46;13.05;;;2.42;;
33413;SDS011;60055;41.884;12.534;2023-08-30T11:58:12;14.82;;;3.20;;
33413;SDS011;60055;41.884;12.534;2023-08-30T12:00:37;15.32;;;3.08;;
33413;SDS011;60055;41.884;12.534;2023-08-30T12:03:05;13.85;;;2.78;;
33413;SDS011;60055;41.884;12.534;2023-08-30T12:05:31;13.93;;;2.85;;
33413;SDS011;60055;41.884;12.534;2023-08-30T12:08:05;16.00;;;3.05;;
33413;SDS011;60055;41.884;12.534;2023-08-30T12:10:31;12.85;;;3.38;;
33413;SDS011;60055;41.884;12.534;2023-08-30T12:12:58;19.27;;;4.53;;
33413;SDS011;60055;41.884;12.534;2023-08-30T12:15:23;19.02;;;4.38;;
33413;SDS011;60055;41.884;12.534;2023-08-30T12:17:52;17.27;;;3.45;;
33413;SDS011;60055;41.884;12.534;2023-08-30T12:20:17;17.05;;;4.05;;
33413;SDS011;60055;41.884;12.534;2023-08-30T12:22:45;15.85;;;3.25;;
33413;SDS011;60055;41.884;12.534;2023-08-30T12:25:17;21.35;;;3.80;;
33413;SDS011;60055;41.884;12.534;2023-08-30T12:27:46;19.02;;;3.88;;
33413;SDS011;60055;41.884;12.534;2023-08-30T12:30:13;13.35;;;3.30;;
33413;SDS011;60055;41.884;12.534;2023-08-30T12:32:43;16.92;;;3.20;;
33413;SDS011;60055;41.884;12.534;2023-08-30T12:35:09;14.05;;;2.90;;
33413;SDS011;60055;41.884;12.534;2023-08-30T12:37:35;14.98;;;3.40;;
33413;SDS011;60055;41.884;12.534;2023-08-30T12:40:00;13.00;;;3.17;;
33413;SDS011;60055;41.884;12.534;2023-08-30T12:42:25;14.88;;;3.47;;
33413;SDS011;60055;41.884;12.534;2023-08-30T12:44:51;13.73;;;3.50;;
33413;SDS011;60055;41.884;12.534;2023-08-30T12:47:17;13.35;;;2.92;;
33413;SDS011;60055;41.884;12.534;2023-08-30T12:49:42;14.43;;;3.20;;
33413;SDS011;60055;41.884;12.534;2023-08-30T12:52:07;16.90;;;4.20;;
33413;SDS011;60055;41.884;12.534;2023-08-30T12:54:33;20.30;;;3.50;;
33413;SDS011;60055;41.884;12.534;2023-08-30T12:56:58;21.20;;;3.72;;
33413;SDS011;60055;41.884;12.534;2023-08-30T12:59:24;17.20;;;3.72;;
33413;SDS011;60055;41.884;12.534;2023-08-30T13:01:49;17.98;;;3.47;;
33413;SDS011;60055;41.884;12.534;2023-08-30T13:04:15;14.88;;;3.47;;
33413;SDS011;60055;41.884;12.534;2023-08-30T13:06:40;15.63;;;3.33;;
33413;SDS011;60055;41.884;12.534;2023-08-30T13:09:06;11.30;;;3.17;;
33413;SDS011;60055;41.884;12.534;2023-08-30T13:11:31;11.20;;;2.78;;
33413;SDS011;60055;41.884;12.534;2023-08-30T13:13:57;15.43;;;2.78;;
33413;SDS011;60055;41.884;12.534;2023-08-30T13:16:23;17.58;;;3.40;;
33413;SDS011;60055;41.884;12.534;2023-08-30T13:18:49;13.82;;;3.00;;
33413;SDS011;60055;41.884;12.534;2023-08-30T13:21:15;15.60;;;3.70;;
33413;SDS011;60055;41.884;12.534;2023-08-30T13:23:40;13.23;;;2.78;;
33413;SDS011;60055;41.884;12.534;2023-08-30T13:26:05;13.52;;;2.95;;
33413;SDS011;60055;41.884;12.534;2023-08-30T13:28:31;14.65;;;2.92;;
33413;SDS011;60055;41.884;12.534;2023-08-30T13:30:56;12.20;;;3.30;;
33413;SDS011;60055;41.884;12.534;2023-08-30T13:33:22;15.88;;;3.97;;
33413;SDS011;60055;41.884;12.534;2023-08-30T13:35:50;13.93;;;4.40;;
33413;SDS011;60055;41.884;12.534;2023-08-30T13:38:19;16.75;;;3.45;;
33413;SDS011;60055;41.884;12.534;2023-08-30T13:40:45;14.18;;;2.97;;
33413;SDS011;60055;41.884;12.534;2023-08-30T13:43:10;16.13;;;3.25;;
33413;SDS011;60055;41.884;12.534;2023-08-30T13:45:36;16.00;;;3.35;;
33413;SDS011;60055;41.884;12.534;2023-08-30T13:48:01;15.32;;;3.20;;
33413;SDS011;60055;41.884;12.534;2023-08-30T13:50:27;13.82;;;3.08;;
33413;SDS011;60055;41.884;12.534;2023-08-30T13:52:58;20.85;;;3.45;;
33413;SDS011;60055;41.884;12.534;2023-08-30T13:55:23;17.48;;;3.70;;
33413;SDS011;60055;41.884;12.534;2023-08-30T13:57:49;16.25;;;3.35;;
33413;SDS011;60055;41.884;12.534;2023-08-30T14:00:15;19.80;;;4.07;;
33413;SDS011;60055;41.884;12.534;2023-08-30T14:02:41;19.17;;;3.80;;
33413;SDS011;60055;41.884;12.534;2023-08-30T14:05:06;17.20;;;3.50;;
33413;SDS011;60055;41.884;12.534;2023-08-30T14:07:32;13.18;;;3.45;;
33413;SDS011;60055;41.884;12.534;2023-08-30T14:09:58;19.02;;;3.67;;
33413;SDS011;60055;41.884;12.534;2023-08-30T14:12:23;20.33;;;3.97;;
33413;SDS011;60055;41.884;12.534;2023-08-30T14:14:49;17.75;;;3.70;;
33413;SDS011;60055;41.884;12.534;2023-08-30T14:17:14;21.40;;;3.55;;
33413;SDS011;60055;41.884;12.534;2023-08-30T14:19:40;16.83;;;3.30;;
33413;SDS011;60055;41.884;12.534;2023-08-30T14:22:05;16.80;;;3.75;;
33413;SDS011;60055;41.884;12.534;2023-08-30T14:24:31;17.95;;;3.50;;
33413;SDS011;60055;41.884;12.534;2023-08-30T14:26:58;15.10;;;3.75;;
33413;SDS011;60055;41.884;12.534;2023-08-30T14:29:25;12.73;;;3.25;;
33413;SDS011;60055;41.884;12.534;2023-08-30T14:31:50;13.80;;;3.60;;